createdAt,value
2023-04-29T13:03:16.029Z,33.63
2023-04-29T13:08:17.560Z,36.15
2023-04-29T13:10:48.444Z,35.08
2023-04-29T13:13:19.454Z,38.00
2023-04-29T13:18:20.476Z,30.88
2023-04-29T13:20:52.996Z,33.15
2023-04-29T13:23:23.954Z,34.13
2023-04-29T13:25:54.584Z,34.50
2023-04-29T13:28:25.266Z,38.07
2023-04-29T13:30:55.655Z,32.60
2023-04-29T13:33:26.279Z,37.72
2023-04-29T13:35:56.705Z,35.83
2023-04-29T13:38:26.957Z,37.03
2023-04-29T13:40:58.425Z,41.20
2023-04-29T13:43:37.892Z,31.83
2023-04-29T13:46:09.438Z,35.13
2023-04-29T13:51:57.905Z,40.63
2023-04-29T13:57:07.776Z,38.65
2023-04-29T13:59:42.584Z,34.63
2023-04-29T14:02:24.406Z,38.38
2023-04-29T14:04:56.903Z,33.75
2023-04-29T14:07:27.478Z,34.42
2023-04-29T14:09:57.777Z,38.80
2023-04-29T14:12:28.078Z,34.53
2023-04-29T14:15:00.489Z,32.00
2023-04-29T14:17:31.134Z,35.33
2023-04-29T14:20:01.446Z,35.22
2023-04-29T14:22:31.954Z,32.87
2023-04-29T14:25:02.347Z,31.98
2023-04-29T14:27:32.893Z,33.97
2023-04-29T14:30:03.444Z,34.28
2023-04-29T14:32:33.897Z,30.33
2023-04-29T14:35:04.240Z,31.48
2023-04-29T14:37:34.653Z,31.17
2023-04-29T14:40:05.043Z,34.10
2023-04-29T14:42:35.474Z,35.17
2023-04-29T14:45:06.538Z,35.25
2023-04-29T14:47:37.245Z,34.70
2023-04-29T14:50:08.508Z,35.57
2023-04-29T14:52:39.389Z,33.20
2023-04-29T14:55:11.353Z,33.37
2023-04-29T14:57:41.775Z,27.97
2023-04-29T15:00:13.811Z,32.58
2023-04-29T15:02:44.491Z,27.55
2023-04-29T15:05:15.192Z,26.27
2023-04-29T15:07:45.664Z,27.60
2023-04-29T15:10:16.145Z,27.33
2023-04-29T15:12:46.595Z,25.83
2023-04-29T15:15:17.010Z,27.13
2023-04-29T15:17:47.544Z,27.20
2023-04-29T15:20:19.703Z,24.60
2023-04-29T15:22:50.170Z,24.85
2023-04-29T15:25:21.180Z,29.60
2023-04-29T15:27:51.968Z,25.95
2023-04-29T15:30:22.599Z,27.23
2023-04-29T15:32:53.286Z,29.08
2023-04-29T15:35:25.007Z,26.80
2023-04-29T15:37:55.384Z,26.27
2023-04-29T15:40:25.927Z,28.48
2023-04-29T15:42:56.230Z,24.15
2023-04-29T15:45:26.842Z,23.48
2023-04-29T15:47:57.250Z,25.73
2023-04-29T15:50:29.430Z,26.95
2023-04-29T15:53:01.375Z,29.10
2023-04-29T15:55:31.799Z,26.25
2023-04-29T15:58:02.334Z,30.20
2023-04-29T16:00:32.941Z,28.57
2023-04-29T16:03:03.808Z,25.08
2023-04-29T16:05:34.916Z,25.83
2023-04-29T16:08:05.293Z,29.97
2023-04-29T16:10:35.835Z,30.10
2023-04-29T16:13:06.596Z,25.00
2023-04-29T16:15:37.796Z,25.65
2023-04-29T16:18:08.378Z,26.27
2023-04-29T16:20:38.963Z,26.83
2023-04-29T16:23:09.413Z,30.97
2023-04-29T16:25:39.993Z,27.45
2023-04-29T16:28:10.374Z,27.43
2023-04-29T16:30:41.191Z,29.90
2023-04-29T16:33:11.698Z,27.13
2023-04-29T16:35:42.206Z,28.88
2023-04-29T16:38:12.949Z,25.60
2023-04-29T16:40:43.797Z,26.90
2023-04-29T16:43:16.875Z,25.07
2023-04-29T16:45:47.460Z,25.42
2023-04-29T16:48:17.970Z,31.77
2023-04-29T16:50:49.201Z,29.73
2023-04-29T16:53:20.780Z,27.88
2023-04-29T16:55:52.939Z,30.63
2023-04-29T16:58:24.264Z,24.75
2023-04-29T17:00:56.425Z,31.20
2023-04-29T17:03:28.007Z,25.63
2023-04-29T17:05:58.790Z,27.95
2023-04-29T17:08:29.595Z,28.55
2023-04-29T17:11:00.154Z,27.48
2023-04-29T17:13:30.648Z,29.63
2023-04-29T17:16:01.350Z,27.40
2023-04-29T17:18:32.536Z,28.33
2023-04-29T17:21:03.149Z,28.45
2023-04-29T17:23:34.004Z,24.47
2023-04-29T17:26:04.697Z,25.65
2023-04-29T17:28:35.229Z,29.03
2023-04-29T17:31:06.072Z,27.07
2023-04-29T17:33:37.651Z,28.73
2023-04-29T17:36:08.865Z,29.98
2023-04-29T17:41:09.603Z,28.38
2023-04-29T17:43:40.126Z,28.42
2023-04-29T17:46:10.631Z,25.50
2023-04-29T17:48:41.074Z,27.37
2023-04-29T17:51:11.565Z,25.23
2023-04-29T17:53:41.860Z,29.10
2023-04-29T17:56:12.231Z,27.30
2023-04-29T17:58:42.556Z,26.03
2023-04-29T18:01:12.950Z,27.63
2023-04-29T18:03:44.062Z,22.27
2023-04-29T18:06:15.062Z,27.63
2023-04-29T18:08:45.479Z,27.10
2023-04-29T18:11:15.988Z,28.17
2023-04-29T18:13:46.913Z,29.25
2023-04-29T18:16:17.316Z,28.55
2023-04-29T18:18:47.813Z,27.43
2023-04-29T18:21:26.376Z,25.87
2023-04-29T18:23:58.011Z,25.55
2023-04-29T18:26:28.531Z,26.02
2023-04-29T18:28:59.188Z,28.65
2023-04-29T18:31:29.572Z,29.20
2023-04-29T18:34:00.132Z,28.53
2023-04-29T18:36:31.736Z,27.07
2023-04-29T18:39:02.271Z,28.20
2023-04-29T18:41:34.231Z,26.87
2023-04-29T18:44:04.860Z,26.45
2023-04-29T18:46:35.371Z,27.20
2023-04-29T18:49:06.064Z,26.95
2023-04-29T18:51:36.416Z,25.73
2023-04-29T18:54:06.961Z,27.47
2023-04-29T18:56:38.920Z,27.40
2023-04-29T18:59:12.037Z,26.70
2023-04-29T19:01:42.431Z,26.63
2023-04-29T19:04:13.123Z,27.37
2023-04-29T19:06:44.140Z,24.50
2023-04-29T19:11:44.674Z,26.25
2023-04-29T19:14:15.023Z,28.77
2023-04-29T19:16:45.494Z,26.65
2023-04-29T19:19:15.912Z,26.27
2023-04-29T19:21:47.097Z,25.83
2023-04-29T19:24:18.283Z,25.00
2023-04-29T19:26:48.881Z,27.73
2023-04-29T19:29:19.355Z,26.80
2023-04-29T19:31:49.963Z,25.70
2023-04-29T19:34:20.447Z,26.30
2023-04-29T19:36:51.079Z,27.30
2023-04-29T19:39:21.551Z,29.50
2023-04-29T19:41:53.129Z,25.80
2023-04-29T19:44:23.578Z,30.90
2023-04-29T19:46:55.833Z,26.27
2023-04-29T19:49:26.241Z,27.80
2023-04-29T19:51:56.859Z,26.57
2023-04-29T19:54:27.315Z,26.53
2023-04-29T19:56:57.767Z,28.23
2023-04-29T19:59:28.739Z,29.90
2023-04-29T20:01:59.420Z,28.50
2023-04-29T23:53:02.580Z,77.80
2023-04-29T23:55:34.021Z,55.77
2023-04-29T23:58:04.347Z,70.90
